createdAt,value
2023-02-15T00:00:28.709Z,192.90
2023-02-15T00:02:55.449Z,185.15
2023-02-15T00:05:24.327Z,290.10
2023-02-15T00:07:51.100Z,186.23
2023-02-15T00:10:18.274Z,184.65
2023-02-15T00:12:45.500Z,175.45
2023-02-15T00:15:13.540Z,180.02
2023-02-15T00:17:40.180Z,162.38
2023-02-15T00:20:07.536Z,193.73
2023-02-15T00:22:36.315Z,149.85
2023-02-15T00:25:03.057Z,174.75
2023-02-15T00:27:31.954Z,139.25
2023-02-15T00:30:01.134Z,151.35
2023-02-15T00:32:27.748Z,154.70
2023-02-15T00:34:54.349Z,127.03
2023-02-15T00:37:40.921Z,112.80
2023-02-15T00:40:08.160Z,134.93
2023-02-15T00:42:34.845Z,123.03
2023-02-15T00:45:01.489Z,111.05
2023-02-15T00:47:28.185Z,120.07
2023-02-15T00:49:54.792Z,101.35
2023-02-15T00:52:21.500Z,123.47
2023-02-15T00:54:48.149Z,108.85
2023-02-15T00:57:14.779Z,87.20
2023-02-15T00:59:41.538Z,106.65
2023-02-15T01:02:08.149Z,93.72
2023-02-15T01:04:34.847Z,104.75
2023-02-15T01:07:04.598Z,81.70
2023-02-15T01:09:31.402Z,76.55
2023-02-15T01:11:58.018Z,81.07
2023-02-15T01:14:26.951Z,77.32
2023-02-15T01:16:53.752Z,79.72
2023-02-15T01:19:20.428Z,76.75
2023-02-15T01:21:47.100Z,84.60
2023-02-15T01:24:15.073Z,80.03
2023-02-15T01:26:44.180Z,82.82
2023-02-15T01:29:26.686Z,80.75
2023-02-15T01:31:53.480Z,90.43
2023-02-15T01:34:22.379Z,71.10
2023-02-15T01:36:49.200Z,77.15
2023-02-15T01:39:18.201Z,82.75
2023-02-15T01:41:44.874Z,79.63
2023-02-15T01:44:48.515Z,80.13
2023-02-15T01:47:37.164Z,72.85
2023-02-15T01:50:04.052Z,77.75
2023-02-15T01:52:34.339Z,75.35
2023-02-15T01:55:01.154Z,68.82
2023-02-15T01:57:29.488Z,67.57
2023-02-15T02:00:03.474Z,63.05
2023-02-15T02:02:30.483Z,68.38
2023-02-15T02:05:07.222Z,59.90
2023-02-15T02:07:40.251Z,58.22
2023-02-15T02:10:08.758Z,60.42
2023-02-15T02:12:38.065Z,57.70
2023-02-15T02:15:05.385Z,59.17
2023-02-15T02:17:37.524Z,62.33
2023-02-15T02:20:46.767Z,71.97
2023-02-15T02:23:31.453Z,60.97
2023-02-15T02:26:20.187Z,65.57
2023-02-15T02:29:15.805Z,58.20
2023-02-15T02:32:09.812Z,56.58
2023-02-15T02:34:50.192Z,62.05
2023-02-15T02:37:38.418Z,63.85
2023-02-15T02:40:31.314Z,55.30
2023-02-15T02:43:05.269Z,58.50
2023-02-15T02:45:59.334Z,64.38
2023-02-15T02:48:30.403Z,57.88
2023-02-15T02:50:57.118Z,56.25
2023-02-15T02:53:26.494Z,51.22
2023-02-15T02:56:06.778Z,58.25
2023-02-15T02:58:42.985Z,67.85
2023-02-15T03:01:25.653Z,52.00
2023-02-15T03:04:05.614Z,60.30
2023-02-15T03:07:01.440Z,54.90
2023-02-15T03:09:44.166Z,54.47
2023-02-15T03:12:35.576Z,65.70
2023-02-15T03:15:18.319Z,63.95
2023-02-15T03:18:05.537Z,61.63
2023-02-15T03:20:37.636Z,61.92
2023-02-15T03:23:24.039Z,57.50
2023-02-15T03:25:57.953Z,60.20
2023-02-15T03:28:41.664Z,57.60
2023-02-15T03:31:13.033Z,53.42
2023-02-15T03:33:47.650Z,54.63
2023-02-15T03:36:29.814Z,57.10
2023-02-15T03:39:11.451Z,58.33
2023-02-15T03:41:50.762Z,54.22
2023-02-15T03:44:31.554Z,55.40
2023-02-15T03:47:05.357Z,54.88
2023-02-15T03:49:57.045Z,63.47
2023-02-15T03:52:26.120Z,52.60
2023-02-15T03:54:53.677Z,58.55
2023-02-15T03:57:45.742Z,48.85
2023-02-15T04:00:33.472Z,54.25
2023-02-15T04:03:00.095Z,59.47
2023-02-15T04:05:27.001Z,58.38
2023-02-15T04:07:53.698Z,60.42
2023-02-15T04:10:38.773Z,54.95
2023-02-15T04:13:05.429Z,53.53
2023-02-15T04:15:50.463Z,54.33
2023-02-15T04:18:17.108Z,53.00
2023-02-15T04:21:06.168Z,50.85
2023-02-15T04:23:53.876Z,49.92
2023-02-15T04:26:22.791Z,50.70
2023-02-15T04:28:49.388Z,58.95
2023-02-15T04:31:18.496Z,55.13
2023-02-15T04:33:45.197Z,81.97
2023-02-15T04:36:11.999Z,53.17
2023-02-15T04:38:38.643Z,48.90
2023-02-15T04:41:07.874Z,56.03
2023-02-15T04:43:36.972Z,47.55
2023-02-15T04:46:04.022Z,56.55
2023-02-15T04:48:33.704Z,62.15
2023-02-15T04:51:07.782Z,54.95
2023-02-15T04:53:35.067Z,62.92
2023-02-15T04:56:01.886Z,53.35
2023-02-15T04:58:28.804Z,78.15
2023-02-15T05:00:59.023Z,58.42
2023-02-15T05:03:26.235Z,62.28
2023-02-15T05:05:52.896Z,53.50
2023-02-15T05:08:21.773Z,58.00
2023-02-15T05:10:53.621Z,74.35
2023-02-15T05:13:20.368Z,57.65
2023-02-15T05:15:51.245Z,63.17
2023-02-15T05:18:19.815Z,60.67
2023-02-15T05:20:46.624Z,66.32
2023-02-15T05:23:13.613Z,51.70
2023-02-15T05:26:05.846Z,58.10
2023-02-15T05:28:32.444Z,56.97
2023-02-15T05:31:09.171Z,65.78
2023-02-15T05:33:36.303Z,67.32
2023-02-15T05:36:04.377Z,59.20
2023-02-15T05:38:34.068Z,59.95
2023-02-15T05:41:05.447Z,52.13
2023-02-15T05:43:33.251Z,57.47
2023-02-15T05:46:00.300Z,57.95
2023-02-15T05:48:28.192Z,50.75
2023-02-15T05:51:12.227Z,50.78
2023-02-15T05:56:10.623Z,51.63
2023-02-15T05:58:41.970Z,57.47
2023-02-15T06:01:13.758Z,69.00
2023-02-15T06:03:46.500Z,56.13
2023-02-15T06:06:16.160Z,53.13
2023-02-15T06:08:43.187Z,53.65
2023-02-15T06:11:10.124Z,55.35
2023-02-15T06:13:38.794Z,62.40
2023-02-15T06:16:11.194Z,51.72
2023-02-15T06:18:37.909Z,59.85
2023-02-15T06:21:04.601Z,68.45
2023-02-15T06:23:31.286Z,56.58
2023-02-15T06:25:57.993Z,57.47
2023-02-15T06:28:26.480Z,58.03
2023-02-15T06:30:53.416Z,62.17
2023-02-15T06:33:20.176Z,60.50
2023-02-15T06:35:47.493Z,66.57
2023-02-15T06:38:16.669Z,54.05
2023-02-15T06:40:43.315Z,62.72
2023-02-15T06:43:10.014Z,51.55
2023-02-15T06:45:36.696Z,59.17
2023-02-15T06:48:03.602Z,62.78
2023-02-15T06:50:30.378Z,78.05
2023-02-15T06:52:58.247Z,64.63
2023-02-15T06:55:27.919Z,66.38
2023-02-15T06:57:54.619Z,67.15
2023-02-15T07:00:23.181Z,71.07
2023-02-15T07:02:58.844Z,68.43
2023-02-15T07:05:31.757Z,64.65
2023-02-15T07:08:00.048Z,71.90
2023-02-15T07:10:27.541Z,59.40
2023-02-15T07:12:56.878Z,61.72
2023-02-15T07:15:26.204Z,70.32
2023-02-15T07:17:52.969Z,63.85
2023-02-15T07:20:24.206Z,69.25
2023-02-15T07:22:55.647Z,75.32
2023-02-15T07:25:22.284Z,73.30
2023-02-15T07:27:57.393Z,75.72
2023-02-15T07:30:24.168Z,80.97
2023-02-15T07:33:19.962Z,75.20
2023-02-15T07:35:58.789Z,78.20
2023-02-15T07:38:31.857Z,67.95
2023-02-15T07:41:03.097Z,76.65
2023-02-15T07:43:33.169Z,71.95
2023-02-15T07:46:01.667Z,68.63
2023-02-15T07:48:28.564Z,90.32
2023-02-15T07:50:55.260Z,73.30
2023-02-15T07:53:21.988Z,72.63
2023-02-15T07:55:48.625Z,86.90
2023-02-15T07:58:15.292Z,74.07
2023-02-15T08:01:02.580Z,75.93
2023-02-15T08:03:30.046Z,74.32
2023-02-15T08:05:59.343Z,75.20
2023-02-15T08:08:31.055Z,87.07
2023-02-15T08:11:30.285Z,92.00
2023-02-15T08:14:25.771Z,90.10
2023-02-15T08:16:55.928Z,75.28
2023-02-15T08:19:32.732Z,78.97
2023-02-15T08:22:04.983Z,74.22
2023-02-15T08:24:37.953Z,84.57
2023-02-15T08:27:06.992Z,77.32
2023-02-15T08:29:35.200Z,76.03
2023-02-15T08:32:08.294Z,68.28
2023-02-15T08:34:38.441Z,84.20
2023-02-15T08:37:08.416Z,75.93
2023-02-15T08:39:35.182Z,80.47
2023-02-15T08:42:01.974Z,70.53
2023-02-15T08:44:28.731Z,67.60
2023-02-15T08:46:55.765Z,79.25
2023-02-15T08:49:22.779Z,62.85
2023-02-15T08:51:50.504Z,62.53
2023-02-15T08:54:19.878Z,57.25
2023-02-15T08:56:47.121Z,57.83
2023-02-15T08:59:24.252Z,59.60
2023-02-15T09:01:52.907Z,65.32
2023-02-15T09:04:20.788Z,60.33
2023-02-15T09:06:49.555Z,52.25
2023-02-15T09:09:18.072Z,50.03
2023-02-15T09:11:48.964Z,54.25
2023-02-15T09:14:18.571Z,54.00
2023-02-15T09:16:49.509Z,60.47
2023-02-15T09:19:18.654Z,64.13
2023-02-15T09:21:45.462Z,56.72
2023-02-15T09:24:14.433Z,66.22
2023-02-15T09:26:45.483Z,61.53
2023-02-15T09:29:13.909Z,68.60
2023-02-15T09:31:45.225Z,60.75
2023-02-15T09:34:13.744Z,65.43
2023-02-15T09:36:41.604Z,68.63
2023-02-15T09:39:25.080Z,70.90
2023-02-15T09:42:16.902Z,75.93
2023-02-15T09:44:55.656Z,57.83
2023-02-15T09:47:44.201Z,65.15
2023-02-15T09:50:32.659Z,62.80
2023-02-15T09:53:13.805Z,72.75
2023-02-15T09:55:46.324Z,77.72
2023-02-15T09:58:46.139Z,77.55
2023-02-15T10:01:25.789Z,79.55
2023-02-15T10:04:21.848Z,73.30
2023-02-15T10:07:09.873Z,72.55
2023-02-15T10:09:45.517Z,61.60
2023-02-15T10:12:36.968Z,73.00
2023-02-15T10:15:15.948Z,70.25
2023-02-15T10:17:52.866Z,77.95
2023-02-15T10:20:34.252Z,69.35
2023-02-15T10:23:26.008Z,71.95
2023-02-15T10:26:06.307Z,80.15
2023-02-15T10:28:56.313Z,86.35
2023-02-15T10:31:33.038Z,85.15
2023-02-15T10:34:11.431Z,96.22
2023-02-15T10:36:50.327Z,99.40
2023-02-15T10:39:34.916Z,93.88
2023-02-15T10:42:28.502Z,74.75
2023-02-15T10:45:21.989Z,73.85
2023-02-15T10:48:15.956Z,75.90
2023-02-15T10:50:52.424Z,72.60
2023-02-15T10:53:46.395Z,79.82
2023-02-15T10:56:24.830Z,69.53
2023-02-15T10:59:17.920Z,73.85
2023-02-15T11:02:10.593Z,79.00
2023-02-15T11:04:52.038Z,80.10
2023-02-15T11:07:18.821Z,74.15
2023-02-15T11:10:16.034Z,71.35
2023-02-15T11:12:46.157Z,74.22
2023-02-15T11:15:33.174Z,71.63
2023-02-15T11:18:06.363Z,68.40
2023-02-15T11:20:55.615Z,67.60
2023-02-15T11:23:23.341Z,62.35
2023-02-15T11:26:02.201Z,61.13
2023-02-15T11:28:32.087Z,60.00
2023-02-15T11:31:10.566Z,65.70
2023-02-15T11:33:42.385Z,58.80
2023-02-15T11:36:33.812Z,66.80
2023-02-15T11:39:10.601Z,59.67
2023-02-15T11:41:45.071Z,65.38
2023-02-15T11:44:21.731Z,66.20
2023-02-15T11:46:50.931Z,72.10
2023-02-15T11:49:34.490Z,67.72
2023-02-15T11:52:05.848Z,72.60
2023-02-15T11:54:36.581Z,66.68
2023-02-15T11:57:20.885Z,69.28
2023-02-15T11:59:53.657Z,76.55
2023-02-15T12:02:28.368Z,67.30
2023-02-15T12:05:05.116Z,70.65
2023-02-15T12:07:45.997Z,70.88
2023-02-15T12:10:25.588Z,71.43
2023-02-15T12:13:15.122Z,61.60
2023-02-15T12:15:49.946Z,66.68
2023-02-15T12:18:37.377Z,70.88
2023-02-15T12:21:11.086Z,56.88
2023-02-15T12:26:09.552Z,58.35
2023-02-15T12:28:40.750Z,57.05
2023-02-15T12:31:37.161Z,63.97
2023-02-15T12:34:32.076Z,66.70
2023-02-15T12:37:03.917Z,58.80
2023-02-15T12:39:33.873Z,60.35
2023-02-15T12:42:14.564Z,56.83
2023-02-15T12:45:19.268Z,61.47
2023-02-15T12:47:46.179Z,54.55
2023-02-15T12:50:23.838Z,57.40
2023-02-15T12:53:26.348Z,61.00
2023-02-15T12:56:03.828Z,51.17
2023-02-15T12:58:39.751Z,56.85
2023-02-15T13:01:17.514Z,47.22
2023-02-15T13:04:00.561Z,53.17
2023-02-15T13:06:29.572Z,52.15
2023-02-15T13:08:59.636Z,53.83
2023-02-15T13:11:35.194Z,54.35
2023-02-15T13:14:15.053Z,59.22
2023-02-15T13:16:43.618Z,57.95
2023-02-15T13:19:37.874Z,58.40
2023-02-15T13:22:11.874Z,54.78
2023-02-15T13:24:44.030Z,48.42
2023-02-15T13:27:20.667Z,52.25
2023-02-15T13:30:05.457Z,53.83
2023-02-15T13:32:34.693Z,53.22
2023-02-15T13:35:06.598Z,54.22
2023-02-15T13:38:08.475Z,53.22
2023-02-15T13:40:56.282Z,52.03
2023-02-15T13:43:40.983Z,50.55
2023-02-15T13:46:48.392Z,53.63
2023-02-15T13:49:48.646Z,51.95
2023-02-15T13:52:28.946Z,47.30
2023-02-15T13:55:17.405Z,48.80
2023-02-15T13:58:02.440Z,53.33
2023-02-15T14:00:40.894Z,50.75
2023-02-15T14:03:42.814Z,55.35
2023-02-15T14:06:21.528Z,53.08
2023-02-15T14:09:28.167Z,54.10
2023-02-15T14:12:00.808Z,58.65
2023-02-15T14:15:05.228Z,53.42
2023-02-15T14:17:53.769Z,54.45
2023-02-15T14:20:58.881Z,53.88
2023-02-15T14:23:37.016Z,52.25
2023-02-15T14:26:25.431Z,52.72
2023-02-15T14:29:31.384Z,51.35
2023-02-15T14:32:05.713Z,47.08
2023-02-15T14:35:02.209Z,48.47
2023-02-15T14:37:53.612Z,45.33
2023-02-15T14:40:53.971Z,46.85
2023-02-15T14:43:47.707Z,49.60
2023-02-15T14:46:32.337Z,47.00
2023-02-15T14:49:30.875Z,50.15
2023-02-15T14:52:00.451Z,50.10
2023-02-15T14:54:27.067Z,54.78
2023-02-15T14:57:02.910Z,50.83
2023-02-15T14:59:47.570Z,51.13
2023-02-15T15:02:29.084Z,50.60
2023-02-15T15:05:12.289Z,48.45
2023-02-15T15:07:43.571Z,50.23
2023-02-15T15:10:17.447Z,51.97
2023-02-15T15:12:56.826Z,51.67
2023-02-15T15:15:32.199Z,48.60
2023-02-15T15:18:02.195Z,50.03
2023-02-15T15:20:46.202Z,49.05
2023-02-15T15:23:15.747Z,46.97
2023-02-15T15:25:47.797Z,50.58
2023-02-15T15:28:36.321Z,49.40
2023-02-15T15:31:38.428Z,52.30
2023-02-15T15:34:43.662Z,51.92
2023-02-15T15:37:35.704Z,51.08
2023-02-15T15:40:17.161Z,55.25
2023-02-15T15:43:09.029Z,54.72
2023-02-15T15:46:01.866Z,52.90
2023-02-15T15:48:35.887Z,50.97
2023-02-15T15:51:29.821Z,57.45
2023-02-15T15:53:57.842Z,56.80
2023-02-15T15:56:30.960Z,63.17
2023-02-15T15:59:03.088Z,53.75
2023-02-15T16:01:50.446Z,51.17
2023-02-15T16:04:34.409Z,52.92
2023-02-15T16:07:19.610Z,51.35
2023-02-15T16:10:01.951Z,50.58
2023-02-15T16:12:31.337Z,55.55
2023-02-15T16:15:00.161Z,55.33
2023-02-15T16:17:32.535Z,54.58
2023-02-15T16:20:19.458Z,54.78
2023-02-15T16:22:48.689Z,55.65
2023-02-15T16:25:42.384Z,60.92
2023-02-15T16:28:13.022Z,59.08
2023-02-15T16:30:41.505Z,62.08
2023-02-15T16:33:16.909Z,58.05
2023-02-15T16:35:59.613Z,57.95
2023-02-15T16:38:50.511Z,61.75
2023-02-15T16:41:25.901Z,56.58
2023-02-15T16:43:55.225Z,60.15
2023-02-15T16:46:29.640Z,57.95
2023-02-15T16:49:00.205Z,65.30
2023-02-15T16:51:29.840Z,60.55
2023-02-15T16:54:01.340Z,64.57
2023-02-15T16:56:31.866Z,64.03
2023-02-15T16:58:59.810Z,60.72
2023-02-15T17:01:30.751Z,59.33
2023-02-15T17:04:27.524Z,61.80
2023-02-15T17:07:01.983Z,59.03
2023-02-15T17:09:28.745Z,59.83
2023-02-15T17:11:55.552Z,59.97
2023-02-15T17:14:30.832Z,63.63
2023-02-15T17:17:05.772Z,66.13
2023-02-15T17:19:41.367Z,65.28
2023-02-15T17:22:08.376Z,70.63
2023-02-15T17:24:44.140Z,74.10
2023-02-15T17:27:23.220Z,65.97
2023-02-15T17:29:53.124Z,64.82
2023-02-15T17:32:23.632Z,65.45
2023-02-15T17:35:05.676Z,59.40
2023-02-15T17:37:47.549Z,63.70
2023-02-15T17:40:22.716Z,65.28
2023-02-15T17:42:55.198Z,64.07
2023-02-15T17:45:23.748Z,59.42
2023-02-15T17:47:50.813Z,73.68
2023-02-15T17:50:23.984Z,63.22
2023-02-15T17:52:53.966Z,73.20
2023-02-15T17:55:35.747Z,78.70
2023-02-15T17:58:05.461Z,82.13
2023-02-15T18:00:53.756Z,92.35
2023-02-15T18:03:39.046Z,90.82
2023-02-15T18:06:24.612Z,95.18
2023-02-15T18:09:12.238Z,126.75
2023-02-15T18:11:39.608Z,116.85
2023-02-15T18:14:08.790Z,109.78
2023-02-15T18:16:43.065Z,160.95
2023-02-15T18:19:16.820Z,133.90
2023-02-15T18:24:22.027Z,173.00
2023-02-15T18:26:51.179Z,328.35
2023-02-15T18:29:21.090Z,298.95
2023-02-15T18:31:52.845Z,161.25
2023-02-15T18:34:30.838Z,184.23
2023-02-15T18:36:59.006Z,224.77
2023-02-15T18:39:46.558Z,283.00
2023-02-15T18:42:24.141Z,194.63
2023-02-15T18:44:55.745Z,254.25
2023-02-15T18:47:22.881Z,218.02
2023-02-15T18:49:49.703Z,237.00
2023-02-15T18:52:18.212Z,167.45
2023-02-15T18:54:51.641Z,309.45
2023-02-15T18:57:18.508Z,283.88
2023-02-15T18:59:45.264Z,231.98
2023-02-15T19:02:17.226Z,365.92
2023-02-15T19:04:45.260Z,195.38
2023-02-15T19:07:21.320Z,196.90
2023-02-15T19:09:55.983Z,259.15
2023-02-15T19:12:25.468Z,179.93
2023-02-15T19:14:56.662Z,219.77
2023-02-15T19:17:24.901Z,248.40
2023-02-15T19:19:52.713Z,157.95
2023-02-15T19:22:27.151Z,179.07
2023-02-15T19:24:59.248Z,148.40
2023-02-15T19:27:35.002Z,222.50
2023-02-15T19:30:07.965Z,268.35
2023-02-15T19:32:39.417Z,222.73
2023-02-15T19:35:06.463Z,198.20
2023-02-15T19:37:42.190Z,203.13
2023-02-15T19:40:21.573Z,175.02
2023-02-15T19:42:48.872Z,308.55
2023-02-15T19:45:19.431Z,168.57
2023-02-15T19:47:48.209Z,180.77
2023-02-15T19:50:16.945Z,222.40
2023-02-15T19:52:44.508Z,291.45
2023-02-15T19:55:26.386Z,201.77
2023-02-15T19:57:54.674Z,298.77
2023-02-15T20:00:23.847Z,169.40
2023-02-15T20:02:53.000Z,194.90
2023-02-15T20:05:20.338Z,173.50
2023-02-15T20:07:49.528Z,191.05
2023-02-15T20:10:19.441Z,229.02
2023-02-15T20:12:47.610Z,308.27
2023-02-15T20:15:28.925Z,212.75
2023-02-15T20:17:57.580Z,178.43
2023-02-15T20:20:29.567Z,197.15
2023-02-15T20:22:56.471Z,255.23
2023-02-15T20:25:29.068Z,191.90
2023-02-15T20:27:57.569Z,180.88
2023-02-15T20:30:31.594Z,217.18
2023-02-15T20:33:00.897Z,249.02
2023-02-15T20:35:31.447Z,318.05
2023-02-15T20:38:04.867Z,293.73
2023-02-15T20:40:55.387Z,192.05
2023-02-15T20:43:22.062Z,444.55
2023-02-15T20:45:50.965Z,258.15
2023-02-15T20:48:19.775Z,272.60
2023-02-15T20:50:46.794Z,290.92
2023-02-15T20:53:13.793Z,301.27
2023-02-15T20:55:40.547Z,366.35
2023-02-15T20:58:29.235Z,323.85
2023-02-15T21:00:58.356Z,335.10
2023-02-15T21:03:31.145Z,479.13
2023-02-15T21:05:59.052Z,406.65
2023-02-15T21:08:26.977Z,347.98
2023-02-15T21:10:54.100Z,311.20
2023-02-15T21:13:33.641Z,353.30
2023-02-15T21:16:01.155Z,257.95
2023-02-15T21:18:30.937Z,228.50
2023-02-15T21:21:06.154Z,419.40
2023-02-15T21:23:39.628Z,272.73
2023-02-15T21:26:07.578Z,313.15
2023-02-15T21:28:34.213Z,230.93
2023-02-15T21:31:01.453Z,455.17
2023-02-15T21:33:28.391Z,212.85
2023-02-15T21:35:57.714Z,287.77
2023-02-15T21:38:28.491Z,257.85
2023-02-15T21:41:15.630Z,232.82
2023-02-15T21:44:00.926Z,195.93
2023-02-15T21:46:41.976Z,244.23
2023-02-15T21:49:08.690Z,296.48
2023-02-15T21:51:54.104Z,288.00
2023-02-15T21:54:21.115Z,191.88
2023-02-15T21:56:51.412Z,179.68
2023-02-15T21:59:18.620Z,233.85
2023-02-15T22:01:50.558Z,407.40
2023-02-15T22:04:27.163Z,225.95
2023-02-15T22:06:54.234Z,245.75
2023-02-15T22:09:29.192Z,361.85
2023-02-15T22:11:55.871Z,242.57
2023-02-15T22:14:40.215Z,259.58
2023-02-15T22:17:21.866Z,197.30
2023-02-15T22:19:49.733Z,215.27
2023-02-15T22:22:19.339Z,251.02
2023-02-15T22:24:46.611Z,433.35
2023-02-15T22:27:27.918Z,451.98
2023-02-15T22:29:55.326Z,300.90
2023-02-15T22:32:26.599Z,294.73
2023-02-15T22:34:54.294Z,283.58
2023-02-15T22:37:23.320Z,303.55
2023-02-15T22:39:49.997Z,321.67
2023-02-15T22:42:27.120Z,233.32
2023-02-15T22:44:55.704Z,268.50
2023-02-15T22:47:24.989Z,288.55
2023-02-15T22:49:52.077Z,463.40
2023-02-15T22:52:19.020Z,218.05
2023-02-15T22:54:48.155Z,315.77
2023-02-15T22:57:31.759Z,268.52
2023-02-15T23:00:00.503Z,238.50
2023-02-15T23:02:27.220Z,418.65
2023-02-15T23:04:53.973Z,397.60
2023-02-15T23:07:22.982Z,492.63
2023-02-15T23:09:51.027Z,280.88
2023-02-15T23:12:27.442Z,341.55
2023-02-15T23:14:55.403Z,314.35
2023-02-15T23:17:22.149Z,258.73
2023-02-15T23:19:51.348Z,246.07
2023-02-15T23:22:20.378Z,255.18
2023-02-15T23:24:52.459Z,299.67
2023-02-15T23:27:38.116Z,230.15
2023-02-15T23:30:12.214Z,234.95
2023-02-15T23:32:39.222Z,313.27
2023-02-15T23:35:17.665Z,274.98
2023-02-15T23:37:46.661Z,510.55
2023-02-15T23:40:37.613Z,323.83
2023-02-15T23:43:05.302Z,233.10
2023-02-15T23:45:37.489Z,233.75
2023-02-15T23:48:32.069Z,197.40
2023-02-15T23:50:59.704Z,392.73
2023-02-15T23:53:26.625Z,264.73
2023-02-15T23:55:53.456Z,216.80
2023-02-15T23:58:25.724Z,280.17
